sensor_id;sensor_type;location;lat;lon;timestamp;P1;durP1;ratioP1;P2;durP2;ratioP2
23266;SDS011;11802;53.160;8.214;2023-06-14T00:01:23;3.28;;;2.10;;
23266;SDS011;11802;53.160;8.214;2023-06-14T00:03:49;5.13;;;2.10;;
23266;SDS011;11802;53.160;8.214;2023-06-14T00:06:14;7.33;;;2.17;;
23266;SDS011;11802;53.160;8.214;2023-06-14T00:08:41;5.10;;;2.53;;
23266;SDS011;11802;53.160;8.214;2023-06-14T00:11:06;9.00;;;2.30;;
23266;SDS011;11802;53.160;8.214;2023-06-14T00:13:32;3.90;;;2.07;;
23266;SDS011;11802;53.160;8.214;2023-06-14T00:15:58;4.00;;;2.27;;
23266;SDS011;11802;53.160;8.214;2023-06-14T00:18:24;4.73;;;2.20;;
23266;SDS011;11802;53.160;8.214;2023-06-14T00:20:54;7.17;;;2.20;;
23266;SDS011;11802;53.160;8.214;2023-06-14T00:23:20;10.03;;;2.50;;
23266;SDS011;11802;53.160;8.214;2023-06-14T00:25:46;4.17;;;2.20;;
23266;SDS011;11802;53.160;8.214;2023-06-14T00:28:12;5.40;;;2.50;;
23266;SDS011;11802;53.160;8.214;2023-06-14T00:30:38;4.43;;;2.10;;
23266;SDS011;11802;53.160;8.214;2023-06-14T00:33:03;7.17;;;2.30;;
23266;SDS011;11802;53.160;8.214;2023-06-14T00:35:29;4.33;;;2.10;;
23266;SDS011;11802;53.160;8.214;2023-06-14T00:37:55;5.63;;;2.20;;
23266;SDS011;11802;53.160;8.214;2023-06-14T00:40:20;6.67;;;2.50;;
23266;SDS011;11802;53.160;8.214;2023-06-14T00:42:47;4.30;;;2.17;;
23266;SDS011;11802;53.160;8.214;2023-06-14T00:45:12;3.57;;;2.20;;
23266;SDS011;11802;53.160;8.214;2023-06-14T00:47:38;5.43;;;2.33;;
23266;SDS011;11802;53.160;8.214;2023-06-14T00:50:07;4.83;;;2.33;;
23266;SDS011;11802;53.160;8.214;2023-06-14T00:52:34;6.17;;;2.50;;
23266;SDS011;11802;53.160;8.214;2023-06-14T00:55:01;4.60;;;2.40;;
23266;SDS011;11802;53.160;8.214;2023-06-14T00:57:27;5.63;;;2.37;;
23266;SDS011;11802;53.160;8.214;2023-06-14T00:59:54;4.47;;;2.50;;
23266;SDS011;11802;53.160;8.214;2023-06-14T01:02:20;6.70;;;2.73;;
23266;SDS011;11802;53.160;8.214;2023-06-14T01:04:47;6.67;;;2.70;;
23266;SDS011;11802;53.160;8.214;2023-06-14T01:07:25;4.57;;;2.30;;
23266;SDS011;11802;53.160;8.214;2023-06-14T01:15:37;7.40;;;3.17;;
23266;SDS011;11802;53.160;8.214;2023-06-14T01:18:04;5.83;;;3.17;;
23266;SDS011;11802;53.160;8.214;2023-06-14T01:20:31;8.67;;;2.43;;
23266;SDS011;11802;53.160;8.214;2023-06-14T01:22:58;7.00;;;3.03;;
23266;SDS011;11802;53.160;8.214;2023-06-14T01:25:24;7.27;;;3.00;;
23266;SDS011;11802;53.160;8.214;2023-06-14T01:27:51;7.87;;;2.80;;
23266;SDS011;11802;53.160;8.214;2023-06-14T01:30:18;7.73;;;2.90;;
23266;SDS011;11802;53.160;8.214;2023-06-14T01:32:46;5.83;;;2.97;;
23266;SDS011;11802;53.160;8.214;2023-06-14T01:35:12;8.27;;;3.47;;
23266;SDS011;11802;53.160;8.214;2023-06-14T01:37:37;5.63;;;2.73;;
23266;SDS011;11802;53.160;8.214;2023-06-14T01:40:05;10.00;;;2.83;;
23266;SDS011;11802;53.160;8.214;2023-06-14T01:42:36;7.93;;;3.33;;
23266;SDS011;11802;53.160;8.214;2023-06-14T01:45:04;6.90;;;3.33;;
23266;SDS011;11802;53.160;8.214;2023-06-14T01:47:31;6.80;;;3.03;;
23266;SDS011;11802;53.160;8.214;2023-06-14T01:49:57;5.43;;;3.20;;
23266;SDS011;11802;53.160;8.214;2023-06-14T01:52:23;6.53;;;3.57;;
23266;SDS011;11802;53.160;8.214;2023-06-14T01:54:49;6.53;;;3.27;;
23266;SDS011;11802;53.160;8.214;2023-06-14T01:57:15;6.10;;;2.90;;
23266;SDS011;11802;53.160;8.214;2023-06-14T01:59:41;8.20;;;3.40;;
23266;SDS011;11802;53.160;8.214;2023-06-14T02:02:06;5.37;;;3.07;;
23266;SDS011;11802;53.160;8.214;2023-06-14T02:04:32;5.87;;;3.20;;
23266;SDS011;11802;53.160;8.214;2023-06-14T02:06:58;6.57;;;3.60;;
23266;SDS011;11802;53.160;8.214;2023-06-14T02:09:24;7.20;;;3.70;;
23266;SDS011;11802;53.160;8.214;2023-06-14T02:11:50;6.63;;;3.47;;
23266;SDS011;11802;53.160;8.214;2023-06-14T02:14:15;4.23;;;3.20;;
23266;SDS011;11802;53.160;8.214;2023-06-14T02:16:42;6.27;;;3.37;;
23266;SDS011;11802;53.160;8.214;2023-06-14T02:19:13;5.30;;;3.27;;
23266;SDS011;11802;53.160;8.214;2023-06-14T02:21:42;7.37;;;3.40;;
23266;SDS011;11802;53.160;8.214;2023-06-14T02:24:08;7.63;;;3.83;;
23266;SDS011;11802;53.160;8.214;2023-06-14T02:26:34;6.83;;;3.80;;
23266;SDS011;11802;53.160;8.214;2023-06-14T02:28:59;7.13;;;3.73;;
23266;SDS011;11802;53.160;8.214;2023-06-14T02:31:25;7.57;;;3.13;;
23266;SDS011;11802;53.160;8.214;2023-06-14T02:33:51;5.50;;;3.30;;
23266;SDS011;11802;53.160;8.214;2023-06-14T02:36:16;6.10;;;3.17;;
23266;SDS011;11802;53.160;8.214;2023-06-14T02:38:42;8.00;;;3.70;;
23266;SDS011;11802;53.160;8.214;2023-06-14T02:41:07;5.60;;;3.50;;
23266;SDS011;11802;53.160;8.214;2023-06-14T02:43:33;6.80;;;3.37;;
23266;SDS011;11802;53.160;8.214;2023-06-14T02:45:58;5.27;;;3.17;;
23266;SDS011;11802;53.160;8.214;2023-06-14T02:48:24;6.23;;;3.53;;
23266;SDS011;11802;53.160;8.214;2023-06-14T02:50:49;5.80;;;3.83;;
23266;SDS011;11802;53.160;8.214;2023-06-14T02:53:16;6.93;;;3.80;;
23266;SDS011;11802;53.160;8.214;2023-06-14T02:55:42;7.67;;;3.70;;
23266;SDS011;11802;53.160;8.214;2023-06-14T02:58:07;8.77;;;3.97;;
23266;SDS011;11802;53.160;8.214;2023-06-14T03:00:33;9.20;;;3.67;;
23266;SDS011;11802;53.160;8.214;2023-06-14T03:03:00;6.30;;;3.90;;
23266;SDS011;11802;53.160;8.214;2023-06-14T03:05:26;10.03;;;3.93;;
23266;SDS011;11802;53.160;8.214;2023-06-14T03:07:53;6.50;;;3.90;;
23266;SDS011;11802;53.160;8.214;2023-06-14T03:10:19;9.07;;;3.77;;
23266;SDS011;11802;53.160;8.214;2023-06-14T03:12:45;7.97;;;4.33;;
23266;SDS011;11802;53.160;8.214;2023-06-14T03:15:12;10.40;;;4.27;;
23266;SDS011;11802;53.160;8.214;2023-06-14T03:17:42;7.63;;;4.20;;
23266;SDS011;11802;53.160;8.214;2023-06-14T03:20:10;7.73;;;3.63;;
23266;SDS011;11802;53.160;8.214;2023-06-14T03:22:36;8.07;;;3.80;;
23266;SDS011;11802;53.160;8.214;2023-06-14T03:25:02;6.83;;;3.87;;
23266;SDS011;11802;53.160;8.214;2023-06-14T03:27:29;5.67;;;3.80;;
23266;SDS011;11802;53.160;8.214;2023-06-14T03:29:54;6.50;;;4.03;;
23266;SDS011;11802;53.160;8.214;2023-06-14T03:32:20;8.87;;;3.83;;
23266;SDS011;11802;53.160;8.214;2023-06-14T03:34:45;7.07;;;3.83;;
23266;SDS011;11802;53.160;8.214;2023-06-14T03:37:11;9.03;;;3.97;;
23266;SDS011;11802;53.160;8.214;2023-06-14T03:39:37;6.80;;;3.53;;
23266;SDS011;11802;53.160;8.214;2023-06-14T03:42:03;6.87;;;3.87;;
23266;SDS011;11802;53.160;8.214;2023-06-14T03:44:29;9.27;;;3.73;;
23266;SDS011;11802;53.160;8.214;2023-06-14T03:46:55;11.73;;;4.30;;
23266;SDS011;11802;53.160;8.214;2023-06-14T03:49:20;10.50;;;4.30;;
23266;SDS011;11802;53.160;8.214;2023-06-14T03:51:46;7.03;;;4.03;;
23266;SDS011;11802;53.160;8.214;2023-06-14T03:54:15;8.83;;;4.10;;
23266;SDS011;11802;53.160;8.214;2023-06-14T03:56:41;7.67;;;3.97;;
23266;SDS011;11802;53.160;8.214;2023-06-14T03:59:06;7.93;;;3.60;;
23266;SDS011;11802;53.160;8.214;2023-06-14T04:01:32;9.32;;;3.72;;
23266;SDS011;11802;53.160;8.214;2023-06-14T04:03:58;8.27;;;3.83;;
23266;SDS011;11802;53.160;8.214;2023-06-14T04:06:24;6.93;;;3.38;;
23266;SDS011;11802;53.160;8.214;2023-06-14T04:08:56;9.43;;;3.45;;
23266;SDS011;11802;53.160;8.214;2023-06-14T04:11:22;5.78;;;3.50;;
23266;SDS011;11802;53.160;8.214;2023-06-14T04:13:47;9.77;;;3.60;;
23266;SDS011;11802;53.160;8.214;2023-06-14T04:16:13;6.60;;;2.85;;
23266;SDS011;11802;53.160;8.214;2023-06-14T04:18:39;6.18;;;3.08;;
23266;SDS011;11802;53.160;8.214;2023-06-14T04:21:04;5.97;;;3.10;;
23266;SDS011;11802;53.160;8.214;2023-06-14T04:23:31;5.93;;;3.15;;
23266;SDS011;11802;53.160;8.214;2023-06-14T04:25:57;7.20;;;3.78;;
23266;SDS011;11802;53.160;8.214;2023-06-14T04:28:27;6.30;;;3.00;;
23266;SDS011;11802;53.160;8.214;2023-06-14T04:30:52;5.20;;;3.20;;
23266;SDS011;11802;53.160;8.214;2023-06-14T04:33:18;10.18;;;3.42;;
23266;SDS011;11802;53.160;8.214;2023-06-14T04:35:44;6.38;;;3.28;;
23266;SDS011;11802;53.160;8.214;2023-06-14T04:38:12;6.28;;;3.10;;
23266;SDS011;11802;53.160;8.214;2023-06-14T04:40:37;8.05;;;3.40;;
23266;SDS011;11802;53.160;8.214;2023-06-14T04:43:11;5.90;;;3.00;;
23266;SDS011;11802;53.160;8.214;2023-06-14T04:45:42;5.90;;;3.25;;
23266;SDS011;11802;53.160;8.214;2023-06-14T04:48:10;5.82;;;2.95;;
23266;SDS011;11802;53.160;8.214;2023-06-14T04:50:35;10.52;;;3.70;;
23266;SDS011;11802;53.160;8.214;2023-06-14T04:53:01;7.60;;;3.20;;
23266;SDS011;11802;53.160;8.214;2023-06-14T04:55:27;4.82;;;2.70;;
23266;SDS011;11802;53.160;8.214;2023-06-14T04:57:53;5.00;;;2.97;;
23266;SDS011;11802;53.160;8.214;2023-06-14T05:00:19;7.32;;;3.30;;
23266;SDS011;11802;53.160;8.214;2023-06-14T05:02:45;5.75;;;3.20;;
23266;SDS011;11802;53.160;8.214;2023-06-14T05:05:12;6.30;;;3.20;;
23266;SDS011;11802;53.160;8.214;2023-06-14T05:07:37;5.72;;;3.47;;
23266;SDS011;11802;53.160;8.214;2023-06-14T05:10:04;8.57;;;3.15;;
23266;SDS011;11802;53.160;8.214;2023-06-14T05:12:30;5.97;;;2.97;;
23266;SDS011;11802;53.160;8.214;2023-06-14T05:14:56;7.38;;;2.72;;
23266;SDS011;11802;53.160;8.214;2023-06-14T05:17:23;5.63;;;2.80;;
23266;SDS011;11802;53.160;8.214;2023-06-14T05:19:49;6.95;;;2.80;;
23266;SDS011;11802;53.160;8.214;2023-06-14T05:22:14;8.02;;;3.38;;
23266;SDS011;11802;53.160;8.214;2023-06-14T05:24:40;13.32;;;3.95;;
23266;SDS011;11802;53.160;8.214;2023-06-14T05:27:06;38.92;;;5.53;;
23266;SDS011;11802;53.160;8.214;2023-06-14T05:29:32;9.32;;;3.47;;
23266;SDS011;11802;53.160;8.214;2023-06-14T05:31:57;13.25;;;3.50;;
23266;SDS011;11802;53.160;8.214;2023-06-14T05:34:23;10.95;;;3.53;;
23266;SDS011;11802;53.160;8.214;2023-06-14T05:36:49;6.25;;;3.42;;
23266;SDS011;11802;53.160;8.214;2023-06-14T05:39:14;5.20;;;3.50;;
23266;SDS011;11802;53.160;8.214;2023-06-14T05:41:40;5.97;;;3.22;;
23266;SDS011;11802;53.160;8.214;2023-06-14T05:44:06;7.05;;;3.20;;
23266;SDS011;11802;53.160;8.214;2023-06-14T05:46:32;7.53;;;3.03;;
23266;SDS011;11802;53.160;8.214;2023-06-14T05:49:00;9.13;;;3.78;;
23266;SDS011;11802;53.160;8.214;2023-06-14T05:51:45;8.05;;;3.15;;
23266;SDS011;11802;53.160;8.214;2023-06-14T05:54:20;7.82;;;3.38;;
23266;SDS011;11802;53.160;8.214;2023-06-14T05:56:49;6.43;;;3.22;;
23266;SDS011;11802;53.160;8.214;2023-06-14T05:59:26;6.47;;;2.97;;
23266;SDS011;11802;53.160;8.214;2023-06-14T06:01:58;7.03;;;3.10;;
23266;SDS011;11802;53.160;8.214;2023-06-14T06:04:24;7.60;;;3.33;;
23266;SDS011;11802;53.160;8.214;2023-06-14T06:06:50;5.28;;;2.60;;
23266;SDS011;11802;53.160;8.214;2023-06-14T06:09:16;8.00;;;3.22;;
23266;SDS011;11802;53.160;8.214;2023-06-14T06:11:42;7.30;;;3.17;;
23266;SDS011;11802;53.160;8.214;2023-06-14T06:14:08;6.95;;;3.00;;
23266;SDS011;11802;53.160;8.214;2023-06-14T06:16:33;11.23;;;2.97;;
23266;SDS011;11802;53.160;8.214;2023-06-14T06:18:59;5.72;;;3.08;;
23266;SDS011;11802;53.160;8.214;2023-06-14T06:21:25;10.02;;;3.60;;
23266;SDS011;11802;53.160;8.214;2023-06-14T06:23:50;7.78;;;3.40;;
23266;SDS011;11802;53.160;8.214;2023-06-14T06:26:16;5.22;;;2.90;;
23266;SDS011;11802;53.160;8.214;2023-06-14T06:28:42;6.40;;;2.90;;
23266;SDS011;11802;53.160;8.214;2023-06-14T06:31:07;6.22;;;2.85;;
23266;SDS011;11802;53.160;8.214;2023-06-14T06:33:33;6.65;;;3.17;;
23266;SDS011;11802;53.160;8.214;2023-06-14T06:35:58;4.72;;;2.65;;
23266;SDS011;11802;53.160;8.214;2023-06-14T06:38:24;7.07;;;2.95;;
23266;SDS011;11802;53.160;8.214;2023-06-14T06:40:50;11.88;;;3.25;;
23266;SDS011;11802;53.160;8.214;2023-06-14T06:43:15;7.03;;;3.20;;
23266;SDS011;11802;53.160;8.214;2023-06-14T06:45:42;11.68;;;3.10;;
23266;SDS011;11802;53.160;8.214;2023-06-14T06:48:08;4.80;;;2.42;;
23266;SDS011;11802;53.160;8.214;2023-06-14T06:50:36;4.20;;;2.50;;
23266;SDS011;11802;53.160;8.214;2023-06-14T06:53:02;8.00;;;3.05;;
23266;SDS011;11802;53.160;8.214;2023-06-14T06:55:27;8.95;;;2.80;;
23266;SDS011;11802;53.160;8.214;2023-06-14T07:01:06;5.32;;;2.78;;
23266;SDS011;11802;53.160;8.214;2023-06-14T07:03:37;7.03;;;3.03;;
23266;SDS011;11802;53.160;8.214;2023-06-14T07:06:06;12.55;;;2.90;;
23266;SDS011;11802;53.160;8.214;2023-06-14T07:08:32;7.80;;;2.63;;
23266;SDS011;11802;53.160;8.214;2023-06-14T07:10:57;9.13;;;2.67;;
23266;SDS011;11802;53.160;8.214;2023-06-14T07:13:23;8.52;;;2.67;;
23266;SDS011;11802;53.160;8.214;2023-06-14T07:15:48;5.20;;;2.58;;
23266;SDS011;11802;53.160;8.214;2023-06-14T07:18:14;7.43;;;2.90;;
23266;SDS011;11802;53.160;8.214;2023-06-14T07:20:40;5.13;;;2.38;;
23266;SDS011;11802;53.160;8.214;2023-06-14T07:23:07;6.90;;;2.63;;
23266;SDS011;11802;53.160;8.214;2023-06-14T07:25:33;5.07;;;2.60;;
23266;SDS011;11802;53.160;8.214;2023-06-14T07:28:02;6.80;;;3.05;;
23266;SDS011;11802;53.160;8.214;2023-06-14T07:30:28;7.95;;;3.00;;
23266;SDS011;11802;53.160;8.214;2023-06-14T07:39:30;7.15;;;3.13;;
23266;SDS011;11802;53.160;8.214;2023-06-14T07:42:03;10.85;;;2.97;;
23266;SDS011;11802;53.160;8.214;2023-06-14T07:44:31;8.38;;;3.17;;
23266;SDS011;11802;53.160;8.214;2023-06-14T07:46:57;15.57;;;3.00;;
23266;SDS011;11802;53.160;8.214;2023-06-14T07:49:24;6.35;;;2.50;;
23266;SDS011;11802;53.160;8.214;2023-06-14T07:51:51;7.43;;;2.78;;
23266;SDS011;11802;53.160;8.214;2023-06-14T07:54:18;7.80;;;2.50;;
23266;SDS011;11802;53.160;8.214;2023-06-14T07:56:44;12.85;;;2.28;;
23266;SDS011;11802;53.160;8.214;2023-06-14T07:59:12;6.13;;;2.38;;
23266;SDS011;11802;53.160;8.214;2023-06-14T08:01:38;5.00;;;2.05;;
23266;SDS011;11802;53.160;8.214;2023-06-14T08:04:04;3.90;;;1.90;;
23266;SDS011;11802;53.160;8.214;2023-06-14T08:06:30;6.78;;;2.63;;
23266;SDS011;11802;53.160;8.214;2023-06-14T08:08:56;3.67;;;2.17;;
23266;SDS011;11802;53.160;8.214;2023-06-14T08:11:21;6.63;;;2.30;;
23266;SDS011;11802;53.160;8.214;2023-06-14T08:13:49;5.10;;;2.20;;
23266;SDS011;11802;53.160;8.214;2023-06-14T08:16:15;3.10;;;2.33;;
23266;SDS011;11802;53.160;8.214;2023-06-14T08:18:43;4.88;;;2.10;;
23266;SDS011;11802;53.160;8.214;2023-06-14T08:21:09;5.57;;;2.17;;
23266;SDS011;11802;53.160;8.214;2023-06-14T08:23:35;4.53;;;1.85;;
23266;SDS011;11802;53.160;8.214;2023-06-14T08:26:01;3.33;;;1.65;;
23266;SDS011;11802;53.160;8.214;2023-06-14T08:28:29;2.17;;;1.70;;
23266;SDS011;11802;53.160;8.214;2023-06-14T08:30:55;4.90;;;1.83;;
23266;SDS011;11802;53.160;8.214;2023-06-14T08:33:21;3.85;;;1.92;;
23266;SDS011;11802;53.160;8.214;2023-06-14T08:35:46;4.82;;;2.00;;
23266;SDS011;11802;53.160;8.214;2023-06-14T08:38:12;5.97;;;2.03;;
23266;SDS011;11802;53.160;8.214;2023-06-14T08:40:48;4.43;;;1.70;;
23266;SDS011;11802;53.160;8.214;2023-06-14T08:43:26;3.20;;;1.90;;
23266;SDS011;11802;53.160;8.214;2023-06-14T08:45:53;4.32;;;2.00;;
23266;SDS011;11802;53.160;8.214;2023-06-14T08:48:26;3.20;;;1.95;;
23266;SDS011;11802;53.160;8.214;2023-06-14T08:50:52;3.38;;;2.00;;
23266;SDS011;11802;53.160;8.214;2023-06-14T08:53:26;4.53;;;2.20;;
23266;SDS011;11802;53.160;8.214;2023-06-14T08:55:53;3.72;;;2.20;;
23266;SDS011;11802;53.160;8.214;2023-06-14T08:58:20;4.38;;;1.60;;
23266;SDS011;11802;53.160;8.214;2023-06-14T09:06:44;3.88;;;1.90;;
23266;SDS011;11802;53.160;8.214;2023-06-14T09:09:10;3.30;;;1.80;;
23266;SDS011;11802;53.160;8.214;2023-06-14T09:11:37;4.28;;;1.83;;
23266;SDS011;11802;53.160;8.214;2023-06-14T09:14:03;3.85;;;1.90;;
23266;SDS011;11802;53.160;8.214;2023-06-14T09:16:31;3.53;;;1.52;;
23266;SDS011;11802;53.160;8.214;2023-06-14T09:18:57;2.35;;;1.55;;
23266;SDS011;11802;53.160;8.214;2023-06-14T09:21:23;4.35;;;1.73;;
23266;SDS011;11802;53.160;8.214;2023-06-14T09:24:57;4.03;;;1.88;;
23266;SDS011;11802;53.160;8.214;2023-06-14T09:27:34;5.80;;;2.08;;
23266;SDS011;11802;53.160;8.214;2023-06-14T09:30:01;6.95;;;2.22;;
23266;SDS011;11802;53.160;8.214;2023-06-14T09:32:28;4.30;;;1.98;;
23266;SDS011;11802;53.160;8.214;2023-06-14T09:34:53;3.28;;;1.90;;
23266;SDS011;11802;53.160;8.214;2023-06-14T09:37:26;7.10;;;2.28;;
23266;SDS011;11802;53.160;8.214;2023-06-14T09:39:55;6.03;;;2.08;;
23266;SDS011;11802;53.160;8.214;2023-06-14T09:42:50;6.15;;;1.98;;
23266;SDS011;11802;53.160;8.214;2023-06-14T09:45:23;5.20;;;2.10;;
23266;SDS011;11802;53.160;8.214;2023-06-14T09:47:49;5.07;;;2.00;;
23266;SDS011;11802;53.160;8.214;2023-06-14T09:50:16;11.48;;;2.25;;
23266;SDS011;11802;53.160;8.214;2023-06-14T09:52:43;4.90;;;2.40;;
23266;SDS011;11802;53.160;8.214;2023-06-14T09:55:14;6.47;;;2.03;;
23266;SDS011;11802;53.160;8.214;2023-06-14T09:57:41;5.35;;;1.92;;
23266;SDS011;11802;53.160;8.214;2023-06-14T10:00:09;5.82;;;2.40;;
23266;SDS011;11802;53.160;8.214;2023-06-14T10:02:36;2.80;;;1.92;;
23266;SDS011;11802;53.160;8.214;2023-06-14T10:10:46;4.72;;;2.03;;
23266;SDS011;11802;53.160;8.214;2023-06-14T10:13:15;6.18;;;1.95;;
23266;SDS011;11802;53.160;8.214;2023-06-14T10:18:32;2.97;;;1.95;;
23266;SDS011;11802;53.160;8.214;2023-06-14T10:24:43;3.75;;;1.88;;
23266;SDS011;11802;53.160;8.214;2023-06-14T10:27:11;7.85;;;2.00;;
23266;SDS011;11802;53.160;8.214;2023-06-14T10:32:21;4.28;;;2.20;;
23266;SDS011;11802;53.160;8.214;2023-06-14T10:34:58;4.70;;;1.85;;
23266;SDS011;11802;53.160;8.214;2023-06-14T10:37:29;7.70;;;2.22;;
23266;SDS011;11802;53.160;8.214;2023-06-14T10:39:54;3.80;;;2.00;;
23266;SDS011;11802;53.160;8.214;2023-06-14T10:42:20;4.80;;;1.80;;
23266;SDS011;11802;53.160;8.214;2023-06-14T10:50:08;5.85;;;2.17;;
23266;SDS011;11802;53.160;8.214;2023-06-14T10:52:41;6.00;;;2.10;;
23266;SDS011;11802;53.160;8.214;2023-06-14T10:55:16;4.32;;;2.20;;
23266;SDS011;11802;53.160;8.214;2023-06-14T10:57:48;4.68;;;2.15;;
23266;SDS011;11802;53.160;8.214;2023-06-14T11:00:16;14.18;;;2.35;;
23266;SDS011;11802;53.160;8.214;2023-06-14T11:05:48;4.80;;;2.08;;
23266;SDS011;11802;53.160;8.214;2023-06-14T11:11:08;10.93;;;2.47;;
23266;SDS011;11802;53.160;8.214;2023-06-14T11:13:38;14.88;;;3.03;;
23266;SDS011;11802;53.160;8.214;2023-06-14T11:16:25;3.72;;;2.20;;
23266;SDS011;11802;53.160;8.214;2023-06-14T11:19:16;5.10;;;2.45;;
23266;SDS011;11802;53.160;8.214;2023-06-14T11:21:42;9.68;;;2.50;;
23266;SDS011;11802;53.160;8.214;2023-06-14T11:24:11;8.43;;;2.70;;
23266;SDS011;11802;53.160;8.214;2023-06-14T11:26:40;10.77;;;3.13;;
23266;SDS011;11802;53.160;8.214;2023-06-14T11:29:06;6.90;;;2.55;;
23266;SDS011;11802;53.160;8.214;2023-06-14T11:31:32;4.93;;;2.42;;
23266;SDS011;11802;53.160;8.214;2023-06-14T11:33:59;4.68;;;2.38;;
23266;SDS011;11802;53.160;8.214;2023-06-14T11:36:28;4.82;;;2.40;;
23266;SDS011;11802;53.160;8.214;2023-06-14T11:38:58;6.18;;;2.30;;
23266;SDS011;11802;53.160;8.214;2023-06-14T11:41:25;3.60;;;2.22;;
23266;SDS011;11802;53.160;8.214;2023-06-14T11:43:53;7.28;;;2.40;;
23266;SDS011;11802;53.160;8.214;2023-06-14T11:46:19;5.15;;;2.10;;
23266;SDS011;11802;53.160;8.214;2023-06-14T11:48:49;6.30;;;2.17;;
23266;SDS011;11802;53.160;8.214;2023-06-14T11:51:14;6.70;;;2.40;;
23266;SDS011;11802;53.160;8.214;2023-06-14T11:53:40;23.25;;;3.92;;
23266;SDS011;11802;53.160;8.214;2023-06-14T11:56:08;4.32;;;2.42;;
23266;SDS011;11802;53.160;8.214;2023-06-14T11:58:34;8.02;;;2.83;;
23266;SDS011;11802;53.160;8.214;2023-06-14T12:01:00;5.80;;;2.30;;
23266;SDS011;11802;53.160;8.214;2023-06-14T12:03:28;3.90;;;2.20;;
23266;SDS011;11802;53.160;8.214;2023-06-14T12:06:09;5.45;;;2.78;;
23266;SDS011;11802;53.160;8.214;2023-06-14T12:08:35;6.18;;;3.05;;
23266;SDS011;11802;53.160;8.214;2023-06-14T12:11:12;9.40;;;2.70;;
23266;SDS011;11802;53.160;8.214;2023-06-14T12:13:38;8.02;;;3.00;;
23266;SDS011;11802;53.160;8.214;2023-06-14T12:16:06;4.88;;;2.10;;
23266;SDS011;11802;53.160;8.214;2023-06-14T12:18:34;3.58;;;2.20;;
23266;SDS011;11802;53.160;8.214;2023-06-14T12:21:01;7.75;;;2.42;;
23266;SDS011;11802;53.160;8.214;2023-06-14T12:23:49;5.95;;;2.95;;
23266;SDS011;11802;53.160;8.214;2023-06-14T12:26:15;8.52;;;2.55;;
23266;SDS011;11802;53.160;8.214;2023-06-14T12:28:42;8.98;;;3.08;;
23266;SDS011;11802;53.160;8.214;2023-06-14T12:31:10;14.98;;;3.10;;
23266;SDS011;11802;53.160;8.214;2023-06-14T12:33:37;5.13;;;2.50;;
23266;SDS011;11802;53.160;8.214;2023-06-14T12:36:04;6.57;;;2.35;;
23266;SDS011;11802;53.160;8.214;2023-06-14T12:38:31;6.15;;;2.63;;
23266;SDS011;11802;53.160;8.214;2023-06-14T12:40:57;8.05;;;2.53;;
23266;SDS011;11802;53.160;8.214;2023-06-14T12:43:23;5.85;;;2.53;;
23266;SDS011;11802;53.160;8.214;2023-06-14T12:45:48;3.33;;;2.30;;
23266;SDS011;11802;53.160;8.214;2023-06-14T12:48:14;4.32;;;2.55;;
23266;SDS011;11802;53.160;8.214;2023-06-14T12:50:40;7.47;;;2.95;;
23266;SDS011;11802;53.160;8.214;2023-06-14T12:53:09;5.50;;;2.60;;
23266;SDS011;11802;53.160;8.214;2023-06-14T12:55:55;4.85;;;2.80;;
23266;SDS011;11802;53.160;8.214;2023-06-14T12:58:23;4.43;;;2.55;;
23266;SDS011;11802;53.160;8.214;2023-06-14T13:01:22;7.30;;;2.50;;
23266;SDS011;11802;53.160;8.214;2023-06-14T13:04:27;5.00;;;2.95;;
23266;SDS011;11802;53.160;8.214;2023-06-14T13:07:30;4.05;;;2.50;;
23266;SDS011;11802;53.160;8.214;2023-06-14T13:09:55;5.10;;;2.67;;
23266;SDS011;11802;53.160;8.214;2023-06-14T13:12:21;4.97;;;2.75;;
23266;SDS011;11802;53.160;8.214;2023-06-14T13:14:46;9.90;;;2.90;;
23266;SDS011;11802;53.160;8.214;2023-06-14T13:17:12;7.13;;;3.80;;
23266;SDS011;11802;53.160;8.214;2023-06-14T13:19:38;6.05;;;2.72;;
23266;SDS011;11802;53.160;8.214;2023-06-14T13:22:03;10.13;;;2.58;;
23266;SDS011;11802;53.160;8.214;2023-06-14T13:24:29;7.85;;;2.53;;
23266;SDS011;11802;53.160;8.214;2023-06-14T13:26:55;8.25;;;2.80;;
23266;SDS011;11802;53.160;8.214;2023-06-14T13:29:21;3.70;;;2.78;;
23266;SDS011;11802;53.160;8.214;2023-06-14T13:31:47;3.63;;;2.47;;
23266;SDS011;11802;53.160;8.214;2023-06-14T13:34:13;7.20;;;3.13;;
23266;SDS011;11802;53.160;8.214;2023-06-14T13:36:38;3.83;;;2.35;;
23266;SDS011;11802;53.160;8.214;2023-06-14T13:39:04;4.35;;;2.90;;
23266;SDS011;11802;53.160;8.214;2023-06-14T13:41:30;8.38;;;2.90;;
23266;SDS011;11802;53.160;8.214;2023-06-14T13:43:58;5.30;;;2.38;;
23266;SDS011;11802;53.160;8.214;2023-06-14T13:46:25;5.22;;;2.45;;
23266;SDS011;11802;53.160;8.214;2023-06-14T13:48:50;5.18;;;2.40;;
23266;SDS011;11802;53.160;8.214;2023-06-14T13:51:16;6.38;;;2.60;;
23266;SDS011;11802;53.160;8.214;2023-06-14T13:53:45;4.55;;;2.47;;
23266;SDS011;11802;53.160;8.214;2023-06-14T13:56:12;3.83;;;2.67;;
23266;SDS011;11802;53.160;8.214;2023-06-14T13:58:38;4.35;;;2.75;;
23266;SDS011;11802;53.160;8.214;2023-06-14T14:01:03;5.18;;;2.70;;
23266;SDS011;11802;53.160;8.214;2023-06-14T14:03:29;6.25;;;2.63;;
23266;SDS011;11802;53.160;8.214;2023-06-14T14:05:55;6.07;;;2.55;;
23266;SDS011;11802;53.160;8.214;2023-06-14T14:08:20;5.97;;;2.88;;
23266;SDS011;11802;53.160;8.214;2023-06-14T14:10:46;3.47;;;2.25;;
23266;SDS011;11802;53.160;8.214;2023-06-14T14:13:12;8.40;;;3.15;;
23266;SDS011;11802;53.160;8.214;2023-06-14T14:15:38;6.05;;;2.70;;
23266;SDS011;11802;53.160;8.214;2023-06-14T14:18:03;3.20;;;2.55;;
23266;SDS011;11802;53.160;8.214;2023-06-14T14:20:30;5.13;;;2.50;;
23266;SDS011;11802;53.160;8.214;2023-06-14T14:22:56;4.60;;;2.42;;
23266;SDS011;11802;53.160;8.214;2023-06-14T14:25:21;5.35;;;2.80;;
23266;SDS011;11802;53.160;8.214;2023-06-14T14:27:47;6.68;;;2.38;;
23266;SDS011;11802;53.160;8.214;2023-06-14T14:30:13;5.82;;;2.60;;
23266;SDS011;11802;53.160;8.214;2023-06-14T14:32:42;4.25;;;2.67;;
23266;SDS011;11802;53.160;8.214;2023-06-14T14:35:09;6.28;;;2.90;;
23266;SDS011;11802;53.160;8.214;2023-06-14T14:37:34;6.45;;;2.63;;
23266;SDS011;11802;53.160;8.214;2023-06-14T14:40:00;7.43;;;2.60;;
23266;SDS011;11802;53.160;8.214;2023-06-14T14:42:26;8.10;;;2.92;;
23266;SDS011;11802;53.160;8.214;2023-06-14T14:44:51;5.72;;;2.72;;
23266;SDS011;11802;53.160;8.214;2023-06-14T14:47:17;4.80;;;2.83;;
23266;SDS011;11802;53.160;8.214;2023-06-14T14:49:42;4.70;;;2.67;;
23266;SDS011;11802;53.160;8.214;2023-06-14T14:52:08;6.00;;;2.60;;
23266;SDS011;11802;53.160;8.214;2023-06-14T14:54:34;5.28;;;3.00;;
23266;SDS011;11802;53.160;8.214;2023-06-14T14:57:00;5.10;;;2.70;;
23266;SDS011;11802;53.160;8.214;2023-06-14T14:59:26;6.55;;;2.70;;
23266;SDS011;11802;53.160;8.214;2023-06-14T15:01:52;4.90;;;2.33;;
23266;SDS011;11802;53.160;8.214;2023-06-14T15:04:17;7.68;;;3.10;;
23266;SDS011;11802;53.160;8.214;2023-06-14T15:06:43;8.35;;;2.50;;
23266;SDS011;11802;53.160;8.214;2023-06-14T15:09:08;6.80;;;2.65;;
23266;SDS011;11802;53.160;8.214;2023-06-14T15:11:34;6.68;;;2.63;;
23266;SDS011;11802;53.160;8.214;2023-06-14T15:14:00;8.38;;;3.00;;
23266;SDS011;11802;53.160;8.214;2023-06-14T15:16:25;5.90;;;2.88;;
23266;SDS011;11802;53.160;8.214;2023-06-14T15:18:51;4.97;;;2.17;;
23266;SDS011;11802;53.160;8.214;2023-06-14T15:21:16;7.20;;;2.42;;
23266;SDS011;11802;53.160;8.214;2023-06-14T15:23:43;4.07;;;2.63;;
23266;SDS011;11802;53.160;8.214;2023-06-14T15:26:10;7.35;;;3.05;;
23266;SDS011;11802;53.160;8.214;2023-06-14T15:28:36;8.45;;;2.55;;
23266;SDS011;11802;53.160;8.214;2023-06-14T15:31:01;6.68;;;2.95;;
23266;SDS011;11802;53.160;8.214;2023-06-14T15:33:27;5.78;;;2.80;;
23266;SDS011;11802;53.160;8.214;2023-06-14T15:35:52;5.68;;;2.83;;